Captain Charles Philbrook — WBR5375 — position and weather

sailwx.info

Track history (hours):
 
Tides and Currents Weather Stations Pressure Air Temp Water Temp Dewpoint Dewpoint Depression Visibility Wind Speed Wind Dir Waves Ship Positions

Captain Charles Philbrook

Owner: MAINE STATE FERRY SERVICE, ROCKLAND, ME. More information available from US FCC via Universal Licensing System and Coast Guard Vessel Documentation Center.

Last reported at 2017-Dec-17 17:30 UTC. Time now 2017-Dec-17 17:37 UTC.
Position N 44°06' W 069°06'.

Length 40 m; draft 3.2 m.

Type: Passenger vessel. MMSI: 367342230.

Date/timePositionNaut miles runAvg speedWind from/ knotsBaromVisibWave heightAir tempDewpointWater temp
2017-Dec-17 17:30N 44°06' W 069°06'0 0.0
2017-Dec-17 16:59N 44°06' W 069°06'2 5.0
2017-Dec-17 16:30N 44°06' W 069°03'610.9
2017-Dec-17 16:00N 44°05' W 068°56'4 8.2
2017-Dec-17 15:28N 44°03' W 068°50'0 0.0
2017-Dec-17 15:00N 44°03' W 068°50'4 8.8
2017-Dec-17 14:30N 44°05' W 068°56'611.2
2017-Dec-17 14:00N 44°06' W 069°03'2 4.6
2017-Dec-17 13:30N 44°06' W 069°06'2 4.4
2017-Dec-17 13:00N 44°06' W 069°04'611.3
2017-Dec-17 12:30N 44°05' W 068°56'4 8.5
2017-Dec-17 11:59N 44°03' W 068°50'0 0.0
2017-Dec-16 22:47N 44°03' W 068°50'2 7.2
2017-Dec-16 22:30N 44°03' W 068°53'510.5
2017-Dec-16 22:00N 44°06' W 068°60'5 9.1
2017-Dec-16 21:27N 44°06' W 069°06'1 1.1
2017-Dec-16 21:00N 44°06' W 069°06'510.8
2017-Dec-16 20:30N 44°05' W 068°58'510.1
2017-Dec-16 20:00N 44°03' W 068°52'1 2.8
2017-Dec-16 19:30N 44°03' W 068°50'2 3.4
2017-Dec-16 18:59N 44°03' W 068°53'511.2
2017-Dec-16 18:30N 44°05' W 068°59'5 9.8
2017-Dec-16 17:58N 44°06' W 069°06'0 0.0
2017-Dec-16 17:30N 44°06' W 069°06'0 0.0
2017-Dec-16 17:00N 44°06' W 069°06'3 5.5
2017-Dec-16 16:30N 44°06' W 069°03'510.7
2017-Dec-16 16:00N 44°05' W 068°56'4 8.2
2017-Dec-16 15:30N 44°03' W 068°50'0 0.0
2017-Dec-16 14:58N 44°03' W 068°50'4 9.2
2017-Dec-16 14:30N 44°05' W 068°56'611.3
2017-Dec-16 14:00N 44°06' W 069°03'2 4.7
2017-Dec-16 13:30N 44°06' W 069°06'2 3.9
2017-Dec-16 13:00N 44°06' W 069°04'611.1
2017-Dec-16 12:29N 44°05' W 068°56'5 9.1
2017-Dec-16 11:59N 44°03' W 068°50'0 0.0
2017-Dec-15 22:47N 44°03' W 068°50'2 7.4
2017-Dec-15 22:29N 44°03' W 068°53'510.5
2017-Dec-15 22:00N 44°06' W 068°60'5 9.7
2017-Dec-15 21:29N 44°06' W 069°06'0 0.4
2017-Dec-15 21:00N 44°06' W 069°06'510.0
2017-Dec-15 20:30N 44°06' W 068°59'510.5
2017-Dec-15 20:00N 44°03' W 068°53'2 3.6
2017-Dec-15 19:29N 44°03' W 068°50'2 3.2
2017-Dec-15 19:00N 44°03' W 068°52'510.9
2017-Dec-15 18:30N 44°05' W 068°59'510.5
2017-Dec-15 18:00N 44°06' W 069°06'0 0.2
2017-Dec-15 17:28N 44°06' W 069°06'0 0.0
2017-Dec-15 16:59N 44°06' W 069°06'3 6.8
2017-Dec-15 16:31N 44°06' W 069°02'510.6
2017-Dec-15 16:00N 44°04' W 068°55'4 6.8
2017-Dec-15 15:28N 44°03' W 068°50'1 2.2
2017-Dec-15 15:00N 44°03' W 068°52'511.0
2017-Dec-15 14:30N 44°05' W 068°58'611.2
2017-Dec-15 14:00N 44°06' W 069°06'0 0.8
2017-Dec-15 13:28N 44°06' W 069°06'3 5.9
2017-Dec-15 12:59N 44°06' W 069°03'510.8
2017-Dec-15 12:30N 44°04' W 068°55'4 8.1
2017-Dec-15 11:59N 44°03' W 068°50'7 0.4
2017-Dec-14 18:30N 44°06' W 068°60'510.0
2017-Dec-14 18:00N 44°06' W 069°06'0 0.0
2017-Dec-14 17:30N 44°06' W 069°06'0 0.0
2017-Dec-14 16:58N 44°06' W 069°06'3 7.2
2017-Dec-14 16:30N 44°06' W 069°02'510.1
2017-Dec-14 15:59N 44°04' W 068°55'1 1.3
2017-Dec-14 15:00N 44°04' W 068°53'611.4
2017-Dec-14 14:30N 44°06' W 069°01'4 7.9
2017-Dec-14 13:58N 44°06' W 069°06'0 0.0
2017-Dec-14 13:29N 44°06' W 069°06'3 5.8
2017-Dec-14 12:59N 44°06' W 069°03'510.5
2017-Dec-14 12:30N 44°05' W 068°56'4 8.3
2017-Dec-14 11:59N 44°03' W 068°50'0 0.0
2017-Dec-13 22:44N 44°03' W 068°50'2 7.6
2017-Dec-13 22:30N 44°03' W 068°53'510.7
2017-Dec-13 22:01N 44°05' W 068°59'510.1
2017-Dec-13 21:29N 44°06' W 069°06'1 2.4
2017-Dec-13 21:00N 44°06' W 069°05'510.0
2017-Dec-13 20:30N 44°05' W 068°58'510.4
2017-Dec-13 19:59N 44°03' W 068°52'1 1.9
2017-Dec-13 19:30N 44°03' W 068°50'3 6.3
2017-Dec-13 19:00N 44°04' W 068°54'610.8
2017-Dec-13 18:29N 44°06' W 069°02'4 7.2
2017-Dec-13 18:00N 44°06' W 069°06'0 0.0
2017-Dec-13 17:28N 44°06' W 069°06'0 0.0
2017-Dec-13 17:00N 44°06' W 069°06'3 5.2
2017-Dec-13 16:30N 44°06' W 069°03'510.5
2017-Dec-13 16:00N 44°05' W 068°56'4 8.8
2017-Dec-13 15:30N 44°03' W 068°50'1 1.9
2017-Dec-13 15:00N 44°03' W 068°52'611.0
2017-Dec-13 14:29N 44°05' W 068°59'511.0
2017-Dec-13 14:00N 44°06' W 069°06'0 0.7
2017-Dec-13 13:28N 44°06' W 069°06'4 9.0
2017-Dec-13 13:00N 44°06' W 069°01'510.3
2017-Dec-13 12:30N 44°04' W 068°54'3 5.7
2017-Dec-13 11:59N 44°03' W 068°50'0 0.0
2017-Dec-12 22:44N 44°02' W 068°51'210.4
2017-Dec-12 22:30N 44°04' W 068°53'510.5
2017-Dec-12 22:00N 44°06' W 068°60'5 9.6
2017-Dec-12 21:30N 44°06' W 069°06'2 4.5
2017-Dec-12 21:00N 44°06' W 069°03'611.1
2017-Dec-12 20:30N 44°05' W 068°56'4 8.7
2017-Dec-12 19:59N 44°03' W 068°50'3 6.6
2017-Dec-12 19:30N 44°04' W 068°54'510.3
2017-Dec-12 19:00N 44°06' W 069°01'4 7.5
2017-Dec-12 18:29N 44°06' W 069°06'0 0.0
2017-Dec-12 18:00N 44°06' W 069°06'0 0.0
2017-Dec-12 17:29N 44°06' W 069°06'0 0.0
2017-Dec-12 16:57N 44°06' W 069°06'2 5.6
2017-Dec-12 16:30N 44°06' W 069°03'510.7
2017-Dec-12 16:00N 44°05' W 068°56'4 9.0
2017-Dec-12 15:30N 44°03' W 068°50'0 0.0
2017-Dec-12 14:59N 44°03' W 068°50'4 9.0
2017-Dec-12 14:30N 44°05' W 068°56'611.3
2017-Dec-12 14:01N 44°06' W 069°03'2 4.4
2017-Dec-12 13:29N 44°06' W 069°06'2 4.8
2017-Dec-12 13:00N 44°06' W 069°03'510.8
2017-Dec-12 12:30N 44°05' W 068°56'5 9.2
2017-Dec-12 12:00N 44°03' W 068°50'0 0.0
2017-Dec-11 22:41N 44°02' W 068°51'210.9
2017-Dec-11 22:30N 44°03' W 068°53'610.8
2017-Dec-11 21:59N 44°06' W 069°00'5 9.4
2017-Dec-11 21:30N 44°06' W 069°06'0 0.1
2017-Dec-11 20:58N 44°06' W 069°06'510.2
2017-Dec-11 20:29N 44°06' W 068°60'510.8
2017-Dec-11 20:00N 44°03' W 068°53'2 4.3
2017-Dec-11 19:30N 44°03' W 068°50'2 4.3
2017-Dec-11 19:00N 44°03' W 068°53'510.6
2017-Dec-11 18:29N 44°06' W 068°60'5 9.5
2017-Dec-11 17:59N 44°06' W 069°06'0 0.0
2017-Dec-11 17:22N 44°06' W 069°06'0 0.0
2017-Dec-11 17:00N 44°06' W 069°06'4 7.0
2017-Dec-11 16:29N 44°06' W 069°01'510.0
2017-Dec-11 15:59N 44°04' W 068°55'4 7.2
2017-Dec-11 15:29N 44°03' W 068°50'0 0.8
2017-Dec-11 14:56N 44°02' W 068°51'510.8
2017-Dec-11 14:29N 44°05' W 068°57'511.3
2017-Dec-11 14:00N 44°06' W 069°04'2 2.7
2017-Dec-11 13:19N 44°06' W 069°06'3 8.5
2017-Dec-11 12:59N 44°06' W 069°03'510.4
2017-Dec-11 12:30N 44°05' W 068°56'4 8.6
2017-Dec-11 11:59N 44°03' W 068°50'0 0.0
2017-Dec-11 11:30N 44°03' W 068°50'0 0.0
2017-Dec-10 22:37N 44°02' W 068°51'211.2
2017-Dec-10 22:29N 44°03' W 068°53'511.1
2017-Dec-10 22:00N 44°06' W 068°60'5 7.5
2017-Dec-10 21:19N 44°06' W 069°06'0 0.3
2017-Dec-10 21:00N 44°06' W 069°06'510.1
2017-Dec-10 20:29N 44°06' W 068°59'510.5
2017-Dec-10 20:00N 44°03' W 068°53'2 3.8
2017-Dec-10 19:28N 44°03' W 068°50'3 5.5
2017-Dec-10 18:59N 44°04' W 068°54'510.9
2017-Dec-10 18:30N 44°06' W 069°00'4 8.5
2017-Dec-10 17:59N 44°06' W 069°06'0 0.0
2017-Dec-10 17:28N 44°06' W 069°06'0 0.0
2017-Dec-10 16:46N 44°06' W 069°06'2 8.4
2017-Dec-10 16:30N 44°06' W 069°03'510.8
2017-Dec-10 16:00N 44°05' W 068°56'5 8.9
2017-Dec-10 15:29N 44°03' W 068°50'1 1.9
2017-Dec-10 15:00N 44°03' W 068°52'510.6
2017-Dec-10 14:30N 44°05' W 068°58'611.1
2017-Dec-10 14:01N 44°06' W 069°06'1 1.1
2017-Dec-10 13:21N 44°06' W 069°06'3 8.9
2017-Dec-10 13:00N 44°06' W 069°02'510.4
2017-Dec-10 12:30N 44°04' W 068°55'4 7.5
2017-Dec-10 11:59N 44°03' W 068°50'1 0.0
2017-Dec-09 22:45N 44°02' W 068°51'311.0
2017-Dec-09 22:29N 44°04' W 068°54'511.1
2017-Dec-09 22:00N 44°06' W 069°01'4 7.2
2017-Dec-09 21:30N 44°06' W 069°06'0 0.1
2017-Dec-09 20:58N 44°06' W 069°06'510.2
2017-Dec-09 20:30N 44°06' W 068°60'510.8
2017-Dec-09 20:00N 44°03' W 068°53'2 4.2
2017-Dec-09 19:30N 44°03' W 068°50'2 4.1
2017-Dec-09 19:00N 44°03' W 068°53'510.4
2017-Dec-09 18:30N 44°06' W 068°60'510.0
2017-Dec-09 18:00N 44°06' W 069°06'0 0.1
2017-Dec-09 17:28N 44°06' W 069°06'0 0.0
2017-Dec-09 16:48N 44°06' W 069°06'2 6.4
2017-Dec-09 16:30N 44°06' W 069°04'611.1
2017-Dec-09 16:00N 44°05' W 068°56'5 9.9
2017-Dec-09 15:30N 44°03' W 068°50'0 0.7
2017-Dec-09 14:56N 44°02' W 068°51'410.2
2017-Dec-09 14:30N 44°05' W 068°56'510.7
2017-Dec-09 14:00N 44°06' W 069°03'2 3.5
2017-Dec-09 13:18N 44°06' W 069°06'2 7.6
2017-Dec-09 13:00N 44°06' W 069°03'510.8
2017-Dec-09 12:30N 44°05' W 068°56'5 6.6
2017-Dec-09 11:48N 44°03' W 068°50'0 0.0
2017-Dec-08 22:41N 44°02' W 068°51'211.0
2017-Dec-08 22:29N 44°04' W 068°53'611.3
2017-Dec-08 21:59N 44°06' W 069°01'4 4.5
2017-Dec-08 21:03N 44°06' W 069°06'0 1.1
2017-Dec-08 21:00N 44°06' W 069°06'510.2
2017-Dec-08 20:30N 44°06' W 068°59'510.3
2017-Dec-08 20:00N 44°03' W 068°53'2 3.9
2017-Dec-08 19:29N 44°03' W 068°50'2 3.5
2017-Dec-08 19:00N 44°03' W 068°53'510.7
2017-Dec-08 18:30N 44°06' W 068°59'510.2
2017-Dec-08 18:00N 44°06' W 069°06'0 0.0
2017-Dec-08 16:52N 44°06' W 069°06'3 6.6
2017-Dec-08 16:29N 44°06' W 069°03'510.8
2017-Dec-08 16:00N 44°05' W 068°56'4 8.3
2017-Dec-08 15:28N 44°03' W 068°50'0 0.0
2017-Dec-08 15:00N 44°03' W 068°50'5 8.9
2017-Dec-08 14:29N 44°05' W 068°56'511.0
2017-Dec-08 14:00N 44°06' W 069°03'2 3.5
2017-Dec-08 13:18N 44°06' W 069°06'3 8.7
2017-Dec-08 13:00N 44°06' W 069°03'510.4
2017-Dec-08 12:30N 44°05' W 068°56'4 0.3
2017-Dec-07 22:38N 44°02' W 068°51'110.7
2017-Dec-07 22:30N 44°03' W 068°53'611.1
2017-Dec-07 21:59N 44°06' W 068°60'5 5.2
2017-Dec-07 21:04N 44°06' W 069°06'0 4.7
2017-Dec-07 21:00N 44°06' W 069°06'510.3
2017-Dec-07 20:30N 44°06' W 068°59'510.0
2017-Dec-07 20:00N 44°03' W 068°53'2 3.0
2017-Dec-07 19:23N 44°03' W 068°50'2 5.5
2017-Dec-07 19:00N 44°03' W 068°53'511.0
2017-Dec-07 18:30N 44°06' W 068°60'5 8.8
2017-Dec-07 17:58N 44°06' W 069°06'  
Track history (hours):
 
Tides and Currents Weather Stations Pressure Air Temp Water Temp Dewpoint Dewpoint Depression Visibility Wind Speed Wind Dir Waves Ship Positions

Captain Charles Philbrook

Owner: MAINE STATE FERRY SERVICE, ROCKLAND, ME. More information available from US FCC via Universal Licensing System and Coast Guard Vessel Documentation Center.

Last reported at 2017-Dec-17 17:30 UTC. Time now 2017-Dec-17 17:37 UTC.
Position N 44°06' W 069°06'.

Length 40 m; draft 3.2 m.

Type: Passenger vessel. MMSI: 367342230.

Date/timePositionNaut miles runAvg speedWind from/ knotsBaromVisibWave heightAir tempDewpointWater temp
2017-Dec-17 17:30N 44°06' W 069°06'0 0.0
2017-Dec-17 16:59N 44°06' W 069°06'2 5.0
2017-Dec-17 16:30N 44°06' W 069°03'610.9
2017-Dec-17 16:00N 44°05' W 068°56'4 8.2
2017-Dec-17 15:28N 44°03' W 068°50'0 0.0
2017-Dec-17 15:00N 44°03' W 068°50'4 8.8
2017-Dec-17 14:30N 44°05' W 068°56'611.2
2017-Dec-17 14:00N 44°06' W 069°03'2 4.6
2017-Dec-17 13:30N 44°06' W 069°06'2 4.4
2017-Dec-17 13:00N 44°06' W 069°04'611.3
2017-Dec-17 12:30N 44°05' W 068°56'4 8.5
2017-Dec-17 11:59N 44°03' W 068°50'0 0.0
2017-Dec-16 22:47N 44°03' W 068°50'2 7.2
2017-Dec-16 22:30N 44°03' W 068°53'510.5
2017-Dec-16 22:00N 44°06' W 068°60'5 9.1
2017-Dec-16 21:27N 44°06' W 069°06'1 1.1
2017-Dec-16 21:00N 44°06' W 069°06'510.8
2017-Dec-16 20:30N 44°05' W 068°58'510.1
2017-Dec-16 20:00N 44°03' W 068°52'1 2.8
2017-Dec-16 19:30N 44°03' W 068°50'2 3.4
2017-Dec-16 18:59N 44°03' W 068°53'511.2
2017-Dec-16 18:30N 44°05' W 068°59'5 9.8
2017-Dec-16 17:58N 44°06' W 069°06'0 0.0
2017-Dec-16 17:30N 44°06' W 069°06'0 0.0
2017-Dec-16 17:00N 44°06' W 069°06'3 5.5
2017-Dec-16 16:30N 44°06' W 069°03'510.7
2017-Dec-16 16:00N 44°05' W 068°56'4 8.2
2017-Dec-16 15:30N 44°03' W 068°50'0 0.0
2017-Dec-16 14:58N 44°03' W 068°50'4 9.2
2017-Dec-16 14:30N 44°05' W 068°56'611.3
2017-Dec-16 14:00N 44°06' W 069°03'2 4.7
2017-Dec-16 13:30N 44°06' W 069°06'2 3.9
2017-Dec-16 13:00N 44°06' W 069°04'611.1
2017-Dec-16 12:29N 44°05' W 068°56'5 9.1
2017-Dec-16 11:59N 44°03' W 068°50'0 0.0
2017-Dec-15 22:47N 44°03' W 068°50'2 7.4
2017-Dec-15 22:29N 44°03' W 068°53'510.5
2017-Dec-15 22:00N 44°06' W 068°60'5 9.7
2017-Dec-15 21:29N 44°06' W 069°06'0 0.4
2017-Dec-15 21:00N 44°06' W 069°06'510.0
2017-Dec-15 20:30N 44°06' W 068°59'510.5
2017-Dec-15 20:00N 44°03' W 068°53'2 3.6
2017-Dec-15 19:29N 44°03' W 068°50'2 3.2
2017-Dec-15 19:00N 44°03' W 068°52'510.9
2017-Dec-15 18:30N 44°05' W 068°59'510.5
2017-Dec-15 18:00N 44°06' W 069°06'0 0.2
2017-Dec-15 17:28N 44°06' W 069°06'0 0.0
2017-Dec-15 16:59N 44°06' W 069°06'3 6.8
2017-Dec-15 16:31N 44°06' W 069°02'510.6
2017-Dec-15 16:00N 44°04' W 068°55'4 6.8
2017-Dec-15 15:28N 44°03' W 068°50'1 2.2
2017-Dec-15 15:00N 44°03' W 068°52'511.0
2017-Dec-15 14:30N 44°05' W 068°58'611.2
2017-Dec-15 14:00N 44°06' W 069°06'0 0.8
2017-Dec-15 13:28N 44°06' W 069°06'3 5.9
2017-Dec-15 12:59N 44°06' W 069°03'510.8
2017-Dec-15 12:30N 44°04' W 068°55'4 8.1
2017-Dec-15 11:59N 44°03' W 068°50'7 0.4
2017-Dec-14 18:30N 44°06' W 068°60'510.0
2017-Dec-14 18:00N 44°06' W 069°06'0 0.0
2017-Dec-14 17:30N 44°06' W 069°06'0 0.0
2017-Dec-14 16:58N 44°06' W 069°06'3 7.2
2017-Dec-14 16:30N 44°06' W 069°02'510.1
2017-Dec-14 15:59N 44°04' W 068°55'1 1.3
2017-Dec-14 15:00N 44°04' W 068°53'611.4
2017-Dec-14 14:30N 44°06' W 069°01'4 7.9
2017-Dec-14 13:58N 44°06' W 069°06'0 0.0
2017-Dec-14 13:29N 44°06' W 069°06'3 5.8
2017-Dec-14 12:59N 44°06' W 069°03'510.5
2017-Dec-14 12:30N 44°05' W 068°56'4 8.3
2017-Dec-14 11:59N 44°03' W 068°50'0 0.0
2017-Dec-13 22:44N 44°03' W 068°50'2 7.6
2017-Dec-13 22:30N 44°03' W 068°53'510.7
2017-Dec-13 22:01N 44°05' W 068°59'510.1
2017-Dec-13 21:29N 44°06' W 069°06'1 2.4
2017-Dec-13 21:00N 44°06' W 069°05'510.0
2017-Dec-13 20:30N 44°05' W 068°58'510.4
2017-Dec-13 19:59N 44°03' W 068°52'1 1.9
2017-Dec-13 19:30N 44°03' W 068°50'3 6.3
2017-Dec-13 19:00N 44°04' W 068°54'610.8
2017-Dec-13 18:29N 44°06' W 069°02'4 7.2
2017-Dec-13 18:00N 44°06' W 069°06'0 0.0
2017-Dec-13 17:28N 44°06' W 069°06'0 0.0
2017-Dec-13 17:00N 44°06' W 069°06'3 5.2
2017-Dec-13 16:30N 44°06' W 069°03'510.5
2017-Dec-13 16:00N 44°05' W 068°56'4 8.8
2017-Dec-13 15:30N 44°03' W 068°50'1 1.9
2017-Dec-13 15:00N 44°03' W 068°52'611.0
2017-Dec-13 14:29N 44°05' W 068°59'511.0
2017-Dec-13 14:00N 44°06' W 069°06'0 0.7
2017-Dec-13 13:28N 44°06' W 069°06'4 9.0
2017-Dec-13 13:00N 44°06' W 069°01'510.3
2017-Dec-13 12:30N 44°04' W 068°54'3 5.7
2017-Dec-13 11:59N 44°03' W 068°50'0 0.0
2017-Dec-12 22:44N 44°02' W 068°51'210.4
2017-Dec-12 22:30N 44°04' W 068°53'510.5
2017-Dec-12 22:00N 44°06' W 068°60'5 9.6
2017-Dec-12 21:30N 44°06' W 069°06'2 4.5
2017-Dec-12 21:00N 44°06' W 069°03'611.1
2017-Dec-12 20:30N 44°05' W 068°56'4 8.7
2017-Dec-12 19:59N 44°03' W 068°50'3 6.6
2017-Dec-12 19:30N 44°04' W 068°54'510.3
2017-Dec-12 19:00N 44°06' W 069°01'4 7.5
2017-Dec-12 18:29N 44°06' W 069°06'0 0.0
2017-Dec-12 18:00N 44°06' W 069°06'0 0.0
2017-Dec-12 17:29N 44°06' W 069°06'0 0.0
2017-Dec-12 16:57N 44°06' W 069°06'2 5.6
2017-Dec-12 16:30N 44°06' W 069°03'510.7
2017-Dec-12 16:00N 44°05' W 068°56'4 9.0
2017-Dec-12 15:30N 44°03' W 068°50'0 0.0
2017-Dec-12 14:59N 44°03' W 068°50'4 9.0
2017-Dec-12 14:30N 44°05' W 068°56'611.3
2017-Dec-12 14:01N 44°06' W 069°03'2 4.4
2017-Dec-12 13:29N 44°06' W 069°06'2 4.8
2017-Dec-12 13:00N 44°06' W 069°03'510.8
2017-Dec-12 12:30N 44°05' W 068°56'5 9.2
2017-Dec-12 12:00N 44°03' W 068°50'0 0.0
2017-Dec-11 22:41N 44°02' W 068°51'210.9
2017-Dec-11 22:30N 44°03' W 068°53'610.8
2017-Dec-11 21:59N 44°06' W 069°00'5 9.4
2017-Dec-11 21:30N 44°06' W 069°06'0 0.1
2017-Dec-11 20:58N 44°06' W 069°06'510.2
2017-Dec-11 20:29N 44°06' W 068°60'510.8
2017-Dec-11 20:00N 44°03' W 068°53'2 4.3
2017-Dec-11 19:30N 44°03' W 068°50'2 4.3
2017-Dec-11 19:00N 44°03' W 068°53'510.6
2017-Dec-11 18:29N 44°06' W 068°60'5 9.5
2017-Dec-11 17:59N 44°06' W 069°06'0 0.0
2017-Dec-11 17:22N 44°06' W 069°06'0 0.0
2017-Dec-11 17:00N 44°06' W 069°06'4 7.0
2017-Dec-11 16:29N 44°06' W 069°01'510.0
2017-Dec-11 15:59N 44°04' W 068°55'4 7.2
2017-Dec-11 15:29N 44°03' W 068°50'0 0.8
2017-Dec-11 14:56N 44°02' W 068°51'510.8
2017-Dec-11 14:29N 44°05' W 068°57'511.3
2017-Dec-11 14:00N 44°06' W 069°04'2 2.7
2017-Dec-11 13:19N 44°06' W 069°06'3 8.5
2017-Dec-11 12:59N 44°06' W 069°03'510.4
2017-Dec-11 12:30N 44°05' W 068°56'4 8.6
2017-Dec-11 11:59N 44°03' W 068°50'0 0.0
2017-Dec-11 11:30N 44°03' W 068°50'0 0.0
2017-Dec-10 22:37N 44°02' W 068°51'211.2
2017-Dec-10 22:29N 44°03' W 068°53'511.1
2017-Dec-10 22:00N 44°06' W 068°60'5 7.5
2017-Dec-10 21:19N 44°06' W 069°06'0 0.3
2017-Dec-10 21:00N 44°06' W 069°06'510.1
2017-Dec-10 20:29N 44°06' W 068°59'510.5
2017-Dec-10 20:00N 44°03' W 068°53'2 3.8
2017-Dec-10 19:28N 44°03' W 068°50'3 5.5
2017-Dec-10 18:59N 44°04' W 068°54'510.9
2017-Dec-10 18:30N 44°06' W 069°00'4 8.5
2017-Dec-10 17:59N 44°06' W 069°06'0 0.0
2017-Dec-10 17:28N 44°06' W 069°06'0 0.0
2017-Dec-10 16:46N 44°06' W 069°06'2 8.4
2017-Dec-10 16:30N 44°06' W 069°03'510.8
2017-Dec-10 16:00N 44°05' W 068°56'5 8.9
2017-Dec-10 15:29N 44°03' W 068°50'1 1.9
2017-Dec-10 15:00N 44°03' W 068°52'510.6
2017-Dec-10 14:30N 44°05' W 068°58'611.1
2017-Dec-10 14:01N 44°06' W 069°06'1 1.1
2017-Dec-10 13:21N 44°06' W 069°06'3 8.9
2017-Dec-10 13:00N 44°06' W 069°02'510.4
2017-Dec-10 12:30N 44°04' W 068°55'4 7.5
2017-Dec-10 11:59N 44°03' W 068°50'1 0.0
2017-Dec-09 22:45N 44°02' W 068°51'311.0
2017-Dec-09 22:29N 44°04' W 068°54'511.1
2017-Dec-09 22:00N 44°06' W 069°01'4 7.2
2017-Dec-09 21:30N 44°06' W 069°06'0 0.1
2017-Dec-09 20:58N 44°06' W 069°06'510.2
2017-Dec-09 20:30N 44°06' W 068°60'510.8
2017-Dec-09 20:00N 44°03' W 068°53'2 4.2
2017-Dec-09 19:30N 44°03' W 068°50'2 4.1
2017-Dec-09 19:00N 44°03' W 068°53'510.4
2017-Dec-09 18:30N 44°06' W 068°60'510.0
2017-Dec-09 18:00N 44°06' W 069°06'0 0.1
2017-Dec-09 17:28N 44°06' W 069°06'0 0.0
2017-Dec-09 16:48N 44°06' W 069°06'2 6.4
2017-Dec-09 16:30N 44°06' W 069°04'611.1
2017-Dec-09 16:00N 44°05' W 068°56'5 9.9
2017-Dec-09 15:30N 44°03' W 068°50'0 0.7
2017-Dec-09 14:56N 44°02' W 068°51'410.2
2017-Dec-09 14:30N 44°05' W 068°56'510.7
2017-Dec-09 14:00N 44°06' W 069°03'2 3.5
2017-Dec-09 13:18N 44°06' W 069°06'2 7.6
2017-Dec-09 13:00N 44°06' W 069°03'510.8
2017-Dec-09 12:30N 44°05' W 068°56'5 6.6
2017-Dec-09 11:48N 44°03' W 068°50'0 0.0
2017-Dec-08 22:41N 44°02' W 068°51'211.0
2017-Dec-08 22:29N 44°04' W 068°53'611.3
2017-Dec-08 21:59N 44°06' W 069°01'4 4.5
2017-Dec-08 21:03N 44°06' W 069°06'0 1.1
2017-Dec-08 21:00N 44°06' W 069°06'510.2
2017-Dec-08 20:30N 44°06' W 068°59'510.3
2017-Dec-08 20:00N 44°03' W 068°53'2 3.9
2017-Dec-08 19:29N 44°03' W 068°50'2 3.5
2017-Dec-08 19:00N 44°03' W 068°53'510.7
2017-Dec-08 18:30N 44°06' W 068°59'510.2
2017-Dec-08 18:00N 44°06' W 069°06'0 0.0
2017-Dec-08 16:52N 44°06' W 069°06'3 6.6
2017-Dec-08 16:29N 44°06' W 069°03'510.8
2017-Dec-08 16:00N 44°05' W 068°56'4 8.3
2017-Dec-08 15:28N 44°03' W 068°50'0 0.0
2017-Dec-08 15:00N 44°03' W 068°50'5 8.9
2017-Dec-08 14:29N 44°05' W 068°56'511.0
2017-Dec-08 14:00N 44°06' W 069°03'2 3.5
2017-Dec-08 13:18N 44°06' W 069°06'3 8.7
2017-Dec-08 13:00N 44°06' W 069°03'510.4
2017-Dec-08 12:30N 44°05' W 068°56'4 0.3
2017-Dec-07 22:38N 44°02' W 068°51'110.7
2017-Dec-07 22:30N 44°03' W 068°53'611.1
2017-Dec-07 21:59N 44°06' W 068°60'5 5.2
2017-Dec-07 21:04N 44°06' W 069°06'0 4.7
2017-Dec-07 21:00N 44°06' W 069°06'510.3
2017-Dec-07 20:30N 44°06' W 068°59'510.0
2017-Dec-07 20:00N 44°03' W 068°53'2 3.0
2017-Dec-07 19:23N 44°03' W 068°50'2 5.5
2017-Dec-07 19:00N 44°03' W 068°53'511.0
2017-Dec-07 18:30N 44°06' W 068°60'5 8.8
2017-Dec-07 17:58N 44°06' W 069°06'  

Dump ship's entire track history